createdAt,value
2018-01-21T00:00:33.843Z,2.60
2018-01-21T00:03:01.433Z,2.60
2018-01-21T00:05:28.850Z,2.60
2018-01-21T00:07:56.285Z,2.70
2018-01-21T00:10:23.726Z,2.60
2018-01-21T00:12:51.270Z,2.60
2018-01-21T00:15:18.632Z,2.60
2018-01-21T00:17:46.850Z,2.60
2018-01-21T00:20:14.272Z,2.60
2018-01-21T00:22:41.717Z,2.70
2018-01-21T00:25:09.128Z,2.70
2018-01-21T00:27:37.329Z,2.80
2018-01-21T00:30:04.741Z,2.80
2018-01-21T00:32:32.171Z,2.80
2018-01-21T00:34:59.638Z,2.80
2018-01-21T00:37:27.117Z,2.80
2018-01-21T00:39:55.392Z,2.70
2018-01-21T00:42:22.786Z,2.70
2018-01-21T00:44:50.197Z,2.70
2018-01-21T00:47:17.611Z,2.70
2018-01-21T00:49:45.025Z,2.70
2018-01-21T00:52:12.435Z,2.70
2018-01-21T00:54:39.841Z,2.80
2018-01-21T00:57:07.253Z,2.80
2018-01-21T00:59:35.429Z,2.50
2018-01-21T01:02:03.617Z,2.50
2018-01-21T01:04:31.784Z,2.50
2018-01-21T01:06:59.221Z,2.50
2018-01-21T01:09:26.662Z,2.50
2018-01-21T01:11:54.069Z,2.60
2018-01-21T01:14:21.501Z,2.60
2018-01-21T01:16:48.998Z,2.70
2018-01-21T01:19:16.405Z,2.70
2018-01-21T01:21:44.613Z,2.70
2018-01-21T01:24:12.026Z,2.70
2018-01-21T01:26:39.437Z,2.70
2018-01-21T01:29:07.618Z,2.80
2018-01-21T01:31:35.801Z,2.80
2018-01-21T01:34:03.209Z,2.80
2018-01-21T01:36:30.645Z,2.70
2018-01-21T01:38:58.859Z,2.70
2018-01-21T01:41:26.267Z,2.70
2018-01-21T01:43:53.688Z,2.70
2018-01-21T01:46:21.163Z,2.70
2018-01-21T01:48:54.576Z,2.70
2018-01-21T01:51:21.988Z,2.80
2018-01-21T01:53:49.501Z,2.80
2018-01-21T01:56:16.979Z,2.80
2018-01-21T01:58:44.861Z,2.80
2018-01-21T02:01:13.010Z,2.80
2018-01-21T02:03:41.313Z,2.80
2018-01-21T02:06:08.822Z,2.80
2018-01-21T02:08:36.258Z,2.90
2018-01-21T02:11:03.667Z,2.80
2018-01-21T02:13:31.092Z,2.80
2018-01-21T02:15:58.498Z,2.80
2018-01-21T02:18:25.912Z,2.80
2018-01-21T02:20:54.081Z,2.80
2018-01-21T02:23:21.588Z,2.70
2018-01-21T02:25:48.996Z,2.80
2018-01-21T02:28:16.436Z,2.70
2018-01-21T02:30:43.893Z,2.70
2018-01-21T02:33:11.355Z,2.70
2018-01-21T02:35:38.839Z,2.70
2018-01-21T02:38:06.266Z,2.70
2018-01-21T02:40:33.664Z,2.70
2018-01-21T02:43:01.085Z,2.60
2018-01-21T02:45:28.513Z,2.60
2018-01-21T02:47:55.968Z,2.60
2018-01-21T02:50:23.381Z,2.60
2018-01-21T02:52:50.811Z,2.60
2018-01-21T02:55:18.233Z,2.60
2018-01-21T02:57:45.745Z,2.60
2018-01-21T03:00:13.213Z,2.60
2018-01-21T03:02:40.682Z,2.50
2018-01-21T03:05:08.107Z,2.40
2018-01-21T03:07:35.517Z,2.40
2018-01-21T03:10:02.941Z,2.40
2018-01-21T03:12:30.358Z,2.40
2018-01-21T03:14:57.774Z,2.40
2018-01-21T03:17:25.284Z,2.40
2018-01-21T03:19:52.703Z,2.30
2018-01-21T03:22:20.129Z,2.40
2018-01-21T03:24:47.549Z,2.30
2018-01-21T03:27:15.065Z,2.40
2018-01-21T03:29:42.490Z,2.30
2018-01-21T03:32:10.013Z,2.30
2018-01-21T03:34:37.475Z,2.30
2018-01-21T03:37:04.951Z,2.30
2018-01-21T03:39:32.357Z,2.30
2018-01-21T03:41:59.768Z,2.30
2018-01-21T03:44:27.188Z,2.30
2018-01-21T03:46:54.620Z,2.30
2018-01-21T03:49:22.082Z,2.30
2018-01-21T03:51:49.505Z,2.20
2018-01-21T03:54:16.932Z,2.20
2018-01-21T03:56:44.326Z,2.20
2018-01-21T03:59:11.747Z,2.20
2018-01-21T04:01:39.225Z,2.20
2018-01-21T04:04:06.637Z,2.20
2018-01-21T04:06:34.063Z,2.20
2018-01-21T04:09:01.477Z,2.20
2018-01-21T04:11:29.113Z,2.20
2018-01-21T04:13:56.521Z,2.20
2018-01-21T04:16:23.945Z,2.20
2018-01-21T04:18:51.482Z,2.20
2018-01-21T04:21:19.676Z,2.20
2018-01-21T04:23:47.858Z,2.20
2018-01-21T04:26:16.074Z,2.20
2018-01-21T04:28:43.596Z,2.10
2018-01-21T04:31:11.795Z,2.20
2018-01-21T04:33:39.973Z,2.20
2018-01-21T04:36:07.388Z,2.10
2018-01-21T04:38:34.797Z,2.10
2018-01-21T04:41:02.269Z,2.10
2018-01-21T04:43:29.786Z,2.10
2018-01-21T04:45:57.197Z,2.10
2018-01-21T04:48:24.609Z,2.10
2018-01-21T04:50:52.040Z,2.10
2018-01-21T04:53:19.485Z,2.20
2018-01-21T04:55:46.885Z,2.20
2018-01-21T04:58:14.310Z,2.10
2018-01-21T05:00:41.700Z,2.10
2018-01-21T05:03:09.135Z,2.10
2018-01-21T05:05:36.533Z,2.10
2018-01-21T05:08:03.968Z,2.10
2018-01-21T05:10:32.149Z,2.10
2018-01-21T05:12:59.633Z,2.10
2018-01-21T05:15:27.038Z,2.10
2018-01-21T05:17:54.562Z,2.10
2018-01-21T05:20:22.027Z,2.10
2018-01-21T05:22:49.501Z,2.10
2018-01-21T05:25:16.922Z,2.10
2018-01-21T05:27:44.338Z,2.10
2018-01-21T05:30:11.745Z,2.10
2018-01-21T05:32:39.946Z,2.10
2018-01-21T05:35:07.349Z,2.10
2018-01-21T05:37:34.761Z,2.10
2018-01-21T05:40:02.178Z,2.10
2018-01-21T05:42:29.676Z,2.10
2018-01-21T05:44:57.088Z,2.10
2018-01-21T05:47:24.513Z,2.10
2018-01-21T05:49:51.941Z,2.10
2018-01-21T05:52:20.120Z,2.10
2018-01-21T05:54:48.306Z,2.10
2018-01-21T05:57:15.811Z,2.10
2018-01-21T05:59:43.221Z,2.10
2018-01-21T06:02:10.640Z,2.10
2018-01-21T06:04:38.116Z,2.10
2018-01-21T06:07:05.537Z,2.10
2018-01-21T06:09:32.949Z,2.10
2018-01-21T06:12:00.353Z,2.10
2018-01-21T06:14:27.908Z,2.10
2018-01-21T06:16:55.349Z,2.10
2018-01-21T06:19:22.769Z,2.20
2018-01-21T06:21:50.179Z,2.10
2018-01-21T06:24:17.657Z,2.10
2018-01-21T06:26:45.069Z,2.10
2018-01-21T06:29:12.487Z,2.10
2018-01-21T06:31:39.973Z,2.10
2018-01-21T06:34:07.425Z,2.20
2018-01-21T06:36:34.837Z,2.20
2018-01-21T06:39:02.264Z,2.20
2018-01-21T06:41:29.734Z,2.20
2018-01-21T06:43:57.158Z,2.20
2018-01-21T06:46:24.572Z,2.10
2018-01-21T06:48:51.988Z,2.20
2018-01-21T06:51:19.505Z,2.20
2018-01-21T06:53:46.977Z,2.20
2018-01-21T06:56:14.389Z,2.20
2018-01-21T06:58:41.811Z,2.20
2018-01-21T07:01:09.283Z,2.30
2018-01-21T07:03:36.690Z,2.30
2018-01-21T07:06:04.104Z,2.20
2018-01-21T07:08:31.581Z,2.20
2018-01-21T07:10:59.001Z,2.20
2018-01-21T07:13:26.426Z,2.20
2018-01-21T07:15:53.849Z,2.20
2018-01-21T07:18:21.276Z,2.30
2018-01-21T07:20:48.727Z,2.30
2018-01-21T07:23:16.198Z,2.30
2018-01-21T07:25:43.610Z,2.30
2018-01-21T07:28:11.017Z,2.30
2018-01-21T07:30:38.441Z,2.30
2018-01-21T07:33:05.863Z,2.30
2018-01-21T07:35:33.329Z,2.30
2018-01-21T07:38:00.750Z,2.30
2018-01-21T07:40:28.157Z,2.30
2018-01-21T07:42:55.573Z,2.40
2018-01-21T07:45:23.001Z,2.40
2018-01-21T07:47:50.478Z,2.40
2018-01-21T07:50:17.881Z,2.40
2018-01-21T07:52:45.309Z,2.30
2018-01-21T07:55:12.752Z,2.40
2018-01-21T07:57:40.140Z,2.30
2018-01-21T08:00:07.608Z,2.30
2018-01-21T08:02:35.081Z,2.30
2018-01-21T08:05:02.664Z,2.30
2018-01-21T08:07:30.829Z,2.40
2018-01-21T08:09:58.240Z,2.40
2018-01-21T08:12:25.661Z,2.40
2018-01-21T08:14:53.842Z,2.30
2018-01-21T08:17:22.023Z,2.30
2018-01-21T08:19:50.206Z,2.30
2018-01-21T08:22:18.381Z,2.30
2018-01-21T08:24:45.798Z,2.30
2018-01-21T08:27:13.221Z,2.30
2018-01-21T08:29:41.403Z,2.40
2018-01-21T08:32:08.917Z,2.40
2018-01-21T08:34:42.673Z,2.50
2018-01-21T08:37:28.915Z,2.50
2018-01-21T08:40:02.769Z,2.50
2018-01-21T08:42:34.728Z,2.50
2018-01-21T08:45:02.153Z,2.50
2018-01-21T08:47:29.565Z,2.50
2018-01-21T08:49:57.047Z,2.50
2018-01-21T08:52:24.457Z,2.60
2018-01-21T08:54:51.872Z,2.60
2018-01-21T08:57:19.281Z,2.60
2018-01-21T08:59:46.703Z,2.60
2018-01-21T09:02:14.128Z,2.60
2018-01-21T09:04:41.538Z,2.60
2018-01-21T09:07:09.004Z,2.60
2018-01-21T09:09:36.506Z,2.60
2018-01-21T09:12:03.946Z,2.60
2018-01-21T09:14:31.366Z,2.60
2018-01-21T09:16:59.601Z,2.70
2018-01-21T09:19:27.050Z,2.60
2018-01-21T09:21:54.448Z,2.70
2018-01-21T09:24:21.925Z,2.70
2018-01-21T09:26:49.384Z,2.70
2018-01-21T09:29:16.855Z,2.80
2018-01-21T09:31:44.297Z,2.80
2018-01-21T09:34:12.508Z,2.80
2018-01-21T09:36:39.947Z,2.80
2018-01-21T09:39:07.447Z,2.80
2018-01-21T09:41:34.909Z,2.90
2018-01-21T09:44:02.378Z,2.90
2018-01-21T09:46:30.661Z,2.90
2018-01-21T09:48:58.073Z,2.90
2018-01-21T09:51:25.487Z,3.00
2018-01-21T09:53:53.719Z,3.00
2018-01-21T09:56:21.138Z,3.00
2018-01-21T09:58:49.332Z,3.00
2018-01-21T10:01:17.561Z,3.00
2018-01-21T10:03:44.974Z,3.00
2018-01-21T10:06:13.181Z,3.00
2018-01-21T10:08:40.593Z,3.00
2018-01-21T10:11:08.017Z,3.00
2018-01-21T10:13:35.507Z,3.10
2018-01-21T10:16:02.921Z,3.10
2018-01-21T10:18:30.429Z,3.10
2018-01-21T10:20:57.845Z,3.10
2018-01-21T10:23:25.261Z,3.00
2018-01-21T10:25:52.740Z,3.00
2018-01-21T10:28:20.213Z,3.10
2018-01-21T10:30:47.625Z,3.10
2018-01-21T10:33:15.219Z,3.10
2018-01-21T10:35:43.408Z,3.00
2018-01-21T10:38:11.632Z,3.00
2018-01-21T10:40:39.086Z,3.00
2018-01-21T10:43:06.505Z,3.10
2018-01-21T10:45:33.943Z,3.00
2018-01-21T10:48:01.385Z,3.10
2018-01-21T10:50:28.804Z,3.10
2018-01-21T10:52:56.214Z,3.20
2018-01-21T10:55:23.685Z,3.20
2018-01-21T10:57:51.854Z,3.30
2018-01-21T11:00:20.067Z,3.30
2018-01-21T11:02:48.231Z,3.30
2018-01-21T11:05:16.478Z,3.30
2018-01-21T11:07:43.873Z,3.30
2018-01-21T11:10:11.286Z,3.30
2018-01-21T11:12:38.749Z,3.30
2018-01-21T11:15:06.141Z,3.30
2018-01-21T11:17:33.588Z,3.30
2018-01-21T11:20:00.992Z,3.20
2018-01-21T11:22:28.422Z,3.30
2018-01-21T11:24:55.854Z,3.30
2018-01-21T11:27:24.062Z,3.30
2018-01-21T11:29:51.488Z,3.30
2018-01-21T11:32:18.917Z,3.30
2018-01-21T11:34:46.376Z,3.30
2018-01-21T11:37:13.785Z,3.40
2018-01-21T11:39:41.672Z,3.50
2018-01-21T11:42:09.185Z,3.40
2018-01-21T11:44:36.621Z,3.40
2018-01-21T11:47:04.037Z,3.40
2018-01-21T11:49:31.453Z,3.50
2018-01-21T11:51:58.872Z,3.40
2018-01-21T11:54:26.279Z,3.50
2018-01-21T11:56:53.693Z,3.50
2018-01-21T11:59:21.190Z,3.50
2018-01-21T12:01:48.597Z,3.60
2018-01-21T12:04:16.813Z,3.50
2018-01-21T12:06:44.307Z,3.50
2018-01-21T12:09:12.335Z,3.60
2018-01-21T12:11:39.765Z,3.60
2018-01-21T12:14:07.169Z,3.60
2018-01-21T12:16:34.689Z,3.60
2018-01-21T12:19:02.109Z,3.60
2018-01-21T12:21:29.537Z,3.60
2018-01-21T12:23:56.950Z,3.60
2018-01-21T12:26:24.403Z,3.60
2018-01-21T12:28:51.794Z,3.80
2018-01-21T12:31:20.027Z,4.10
2018-01-21T12:33:47.433Z,4.10
2018-01-21T12:36:14.856Z,4.10
2018-01-21T12:38:42.270Z,4.00
2018-01-21T12:41:09.694Z,3.90
2018-01-21T12:43:37.122Z,3.80
2018-01-21T12:46:05.338Z,3.80
2018-01-21T12:48:32.757Z,3.80
2018-01-21T12:51:00.312Z,3.80
2018-01-21T12:53:27.758Z,3.90
2018-01-21T12:55:55.221Z,3.90
2018-01-21T12:58:22.639Z,3.80
2018-01-21T13:00:50.066Z,3.80
2018-01-21T13:03:17.489Z,3.70
2018-01-21T13:05:45.680Z,3.70
2018-01-21T13:08:13.890Z,3.70
2018-01-21T13:10:41.346Z,3.70
2018-01-21T13:13:08.761Z,3.80
2018-01-21T13:15:37.206Z,3.70
2018-01-21T13:18:04.616Z,3.80
2018-01-21T13:20:32.029Z,3.90
2018-01-21T13:23:00.213Z,4.10
2018-01-21T13:25:28.398Z,4.10
2018-01-21T13:27:56.639Z,4.20
2018-01-21T13:30:24.057Z,4.20
2018-01-21T13:32:52.259Z,4.30
2018-01-21T13:35:20.512Z,4.20
2018-01-21T13:37:47.973Z,4.20
2018-01-21T13:40:15.389Z,4.20
2018-01-21T13:42:42.881Z,4.20
2018-01-21T13:45:10.296Z,4.20
2018-01-21T13:47:38.491Z,4.00
2018-01-21T13:50:06.681Z,4.10
2018-01-21T13:52:34.856Z,4.10
2018-01-21T13:55:02.279Z,4.00
2018-01-21T13:57:29.713Z,4.10
2018-01-21T13:59:57.125Z,4.00
2018-01-21T14:02:24.592Z,4.00
2018-01-21T14:04:51.987Z,4.00
2018-01-21T14:07:20.941Z,4.00
2018-01-21T14:09:48.420Z,4.00
2018-01-21T14:12:15.933Z,4.00
2018-01-21T14:14:43.313Z,4.10
2018-01-21T14:17:11.504Z,4.00
2018-01-21T14:19:38.929Z,4.00
2018-01-21T14:22:06.364Z,4.00
2018-01-21T14:24:33.773Z,4.00
2018-01-21T14:27:01.186Z,3.90
2018-01-21T14:29:28.661Z,3.90
2018-01-21T14:31:56.093Z,3.90
2018-01-21T14:34:23.501Z,3.90
2018-01-21T14:36:50.937Z,3.90
2018-01-21T14:39:18.329Z,3.90
2018-01-21T14:41:45.741Z,3.80
2018-01-21T14:44:13.205Z,3.70
2018-01-21T14:46:40.641Z,3.70
2018-01-21T14:49:08.113Z,3.60
2018-01-21T14:51:35.593Z,3.50
2018-01-21T14:54:03.058Z,3.50
2018-01-21T14:56:30.529Z,3.60
2018-01-21T14:58:57.945Z,3.60
2018-01-21T15:01:25.361Z,3.60
2018-01-21T15:03:52.777Z,3.70
2018-01-21T15:06:20.237Z,3.70
2018-01-21T15:08:47.675Z,3.70
2018-01-21T15:11:15.158Z,3.70
2018-01-21T15:13:42.574Z,3.70
2018-01-21T15:16:10.757Z,3.70
2018-01-21T15:18:39.029Z,3.70
2018-01-21T15:21:06.401Z,3.60
2018-01-21T15:23:34.585Z,3.60
2018-01-21T15:26:02.025Z,3.60
2018-01-21T15:28:29.446Z,3.60
2018-01-21T15:30:56.878Z,3.60
2018-01-21T15:33:24.282Z,3.50
2018-01-21T15:35:51.770Z,3.50
2018-01-21T15:38:19.253Z,3.50
2018-01-21T15:40:46.686Z,3.50
2018-01-21T15:43:15.055Z,3.40
2018-01-21T15:45:43.273Z,3.50
2018-01-21T15:48:10.693Z,3.40
2018-01-21T15:50:38.110Z,3.40
2018-01-21T15:53:05.541Z,3.50
2018-01-21T15:55:32.951Z,3.50
2018-01-21T15:58:00.369Z,3.50
2018-01-21T16:00:27.804Z,3.50
2018-01-21T16:02:55.257Z,3.50
2018-01-21T16:05:22.688Z,3.40
2018-01-21T16:07:50.475Z,3.40
2018-01-21T16:10:17.949Z,3.40
2018-01-21T16:12:46.132Z,3.30
2018-01-21T16:15:14.329Z,3.30
2018-01-21T16:17:42.529Z,3.30
2018-01-21T16:20:09.939Z,3.30
2018-01-21T16:22:37.386Z,3.30
2018-01-21T16:25:04.793Z,3.30
2018-01-21T16:27:32.249Z,3.30
2018-01-21T16:29:59.656Z,3.30
2018-01-21T16:32:27.860Z,3.30
2018-01-21T16:34:55.273Z,3.30
2018-01-21T16:37:34.669Z,3.30
2018-01-21T16:40:02.078Z,3.30
2018-01-21T16:42:29.488Z,3.30
2018-01-21T16:44:57.671Z,3.30
2018-01-21T16:47:25.850Z,3.30
2018-01-21T16:49:54.030Z,3.20
2018-01-21T16:52:21.532Z,3.20
2018-01-21T16:54:48.950Z,3.20
2018-01-21T16:57:16.360Z,3.20
2018-01-21T16:59:43.781Z,3.20
2018-01-21T17:02:11.204Z,3.20
2018-01-21T17:04:38.613Z,3.20
2018-01-21T17:07:06.031Z,3.20
2018-01-21T17:09:34.209Z,3.10
2018-01-21T17:12:02.389Z,3.10
2018-01-21T17:14:30.577Z,3.10
2018-01-21T17:16:58.841Z,3.00
2018-01-21T17:19:26.358Z,3.00
2018-01-21T17:21:53.778Z,3.00
2018-01-21T17:24:21.233Z,3.00
2018-01-21T17:26:48.646Z,2.90
2018-01-21T17:29:16.825Z,2.90
2018-01-21T17:31:45.053Z,2.90
2018-01-21T17:34:12.515Z,2.90
2018-01-21T17:36:39.945Z,2.90
2018-01-21T17:39:07.359Z,2.90
2018-01-21T17:41:34.831Z,2.80
2018-01-21T17:44:02.240Z,2.80
2018-01-21T17:46:29.654Z,2.80
2018-01-21T17:48:57.078Z,2.70
2018-01-21T17:51:24.497Z,2.70
2018-01-21T17:53:51.941Z,2.70
2018-01-21T17:56:20.163Z,2.70
2018-01-21T17:58:47.615Z,2.70
2018-01-21T18:01:15.026Z,2.70
2018-01-21T18:03:42.448Z,2.70
2018-01-21T18:06:09.866Z,2.70
2018-01-21T18:08:37.284Z,2.70
2018-01-21T18:11:04.758Z,2.70
2018-01-21T18:13:33.005Z,2.60
2018-01-21T18:16:00.484Z,2.60
2018-01-21T18:18:28.770Z,2.60
2018-01-21T18:20:57.013Z,2.60
2018-01-21T18:23:24.498Z,2.60
2018-01-21T18:25:52.049Z,2.60
2018-01-21T18:28:19.542Z,2.60
2018-01-21T18:30:47.019Z,2.50
2018-01-21T18:33:14.456Z,2.60
2018-01-21T18:35:41.881Z,2.60
2018-01-21T18:38:09.421Z,2.50
2018-01-21T18:40:36.853Z,2.50
2018-01-21T18:43:04.287Z,2.50
2018-01-21T18:45:32.517Z,2.40
2018-01-21T18:48:00.022Z,2.40
2018-01-21T18:50:27.441Z,2.40
2018-01-21T18:52:54.902Z,2.40
2018-01-21T18:55:23.177Z,2.40
2018-01-21T18:57:50.865Z,2.40
2018-01-21T19:00:18.299Z,2.40
2018-01-21T19:02:46.556Z,2.30
2018-01-21T19:05:13.985Z,2.30
2018-01-21T19:07:41.569Z,2.30
2018-01-21T19:10:09.021Z,2.30
2018-01-21T19:12:36.453Z,2.40
2018-01-21T19:15:03.879Z,2.50
2018-01-21T19:17:31.294Z,2.50
2018-01-21T19:20:00.217Z,2.30
2018-01-21T19:22:28.426Z,2.40
2018-01-21T19:24:55.838Z,2.30
2018-01-21T19:27:23.357Z,2.40
2018-01-21T19:29:50.835Z,2.40
2018-01-21T19:32:18.298Z,2.40
2018-01-21T19:34:45.725Z,2.40
2018-01-21T19:37:13.135Z,2.40
2018-01-21T19:39:46.013Z,2.40
2018-01-21T19:42:24.109Z,2.30
2018-01-21T19:44:51.521Z,2.30
2018-01-21T19:47:18.936Z,2.40
2018-01-21T19:49:46.449Z,2.40
2018-01-21T19:52:13.858Z,2.40
2018-01-21T19:54:41.342Z,2.40
2018-01-21T19:57:08.789Z,2.40
2018-01-21T19:59:36.247Z,2.30
2018-01-21T20:02:03.721Z,2.30
2018-01-21T20:04:31.278Z,2.40
2018-01-21T20:06:58.728Z,2.30
2018-01-21T20:09:26.966Z,2.30
2018-01-21T20:11:54.479Z,2.30
2018-01-21T20:14:21.951Z,2.30
2018-01-21T20:16:49.371Z,2.40
2018-01-21T20:19:16.833Z,2.30
2018-01-21T20:21:44.286Z,2.30
2018-01-21T20:24:11.709Z,2.20
2018-01-21T20:26:39.201Z,2.20
2018-01-21T20:29:06.711Z,2.20
2018-01-21T20:31:34.168Z,2.20
2018-01-21T20:34:01.769Z,2.30
2018-01-21T20:36:29.238Z,2.30
2018-01-21T20:38:56.676Z,2.30
2018-01-21T20:41:24.130Z,2.30
2018-01-21T20:43:51.633Z,2.30
2018-01-21T20:46:19.074Z,2.20
2018-01-21T20:48:46.485Z,2.30
2018-01-21T20:51:31.713Z,2.30
2018-01-21T20:54:04.867Z,2.20
2018-01-21T20:56:32.292Z,2.20
2018-01-21T20:58:59.761Z,2.20
2018-01-21T21:01:27.177Z,2.30
2018-01-21T21:03:54.613Z,2.20
2018-01-21T21:06:22.022Z,2.20
2018-01-21T21:08:49.560Z,2.20
2018-01-21T21:11:16.998Z,2.20
2018-01-21T21:13:44.577Z,2.20
2018-01-21T21:16:12.729Z,2.20
2018-01-21T21:18:40.913Z,2.10
2018-01-21T21:21:09.122Z,2.10
2018-01-21T21:23:36.554Z,2.10
2018-01-21T21:26:03.973Z,2.10
2018-01-21T21:28:31.430Z,2.10
2018-01-21T21:30:58.838Z,2.10
2018-01-21T21:33:26.263Z,2.10
2018-01-21T21:35:53.681Z,2.10
2018-01-21T21:38:21.091Z,2.10
2018-01-21T21:40:49.342Z,2.20
2018-01-21T21:43:16.762Z,2.10
2018-01-21T21:45:44.194Z,2.10
2018-01-21T21:48:12.374Z,2.10
2018-01-21T21:50:39.825Z,2.10
2018-01-21T21:53:07.229Z,2.10
2018-01-21T21:55:35.437Z,2.20
2018-01-21T21:58:02.837Z,2.10
2018-01-21T22:00:30.262Z,2.10
2018-01-21T22:02:58.429Z,2.00
2018-01-21T22:05:26.750Z,2.10
2018-01-21T22:07:54.893Z,2.10
2018-01-21T22:10:22.331Z,2.00
2018-01-21T22:12:49.773Z,2.10
2018-01-21T22:15:17.198Z,2.10
2018-01-21T22:17:44.793Z,2.10
2018-01-21T22:20:12.205Z,2.10
2018-01-21T22:22:39.648Z,2.10
2018-01-21T22:25:07.070Z,2.20
2018-01-21T22:27:34.470Z,2.10
2018-01-21T22:30:01.888Z,2.10
2018-01-21T22:32:29.288Z,2.10
2018-01-21T22:34:57.474Z,2.10
2018-01-21T22:37:25.641Z,2.10
2018-01-21T22:39:53.057Z,2.10
2018-01-21T22:42:20.465Z,2.10
2018-01-21T22:44:48.020Z,2.10
2018-01-21T22:47:15.423Z,2.10
2018-01-21T22:49:43.597Z,2.10
2018-01-21T22:52:11.007Z,2.10
2018-01-21T22:54:38.405Z,2.10
2018-01-21T22:57:05.833Z,2.10
2018-01-21T22:59:33.245Z,2.20
2018-01-21T23:02:00.649Z,2.10
2018-01-21T23:04:28.829Z,2.10
2018-01-21T23:06:56.275Z,2.10
2018-01-21T23:09:23.675Z,2.10
2018-01-21T23:11:51.869Z,2.00
2018-01-21T23:14:20.031Z,2.00
2018-01-21T23:16:47.541Z,2.00
2018-01-21T23:19:14.955Z,2.00
2018-01-21T23:21:42.361Z,2.00
2018-01-21T23:24:10.533Z,2.00
2018-01-21T23:26:38.705Z,2.00
2018-01-21T23:29:06.130Z,1.90
2018-01-21T23:31:33.539Z,1.90
2018-01-21T23:34:00.958Z,2.00
2018-01-21T23:36:28.376Z,2.00
2018-01-21T23:38:55.789Z,2.00
2018-01-21T23:41:23.264Z,2.00
2018-01-21T23:43:50.678Z,2.00
2018-01-21T23:46:18.192Z,2.00
2018-01-21T23:48:45.596Z,2.10
2018-01-21T23:51:13.019Z,2.00
2018-01-21T23:53:41.209Z,2.00
2018-01-21T23:56:08.688Z,2.00
2018-01-21T23:58:36.093Z,2.00
